Terminal Aerodrome Forecast
Issued by NWS

Home | Current Version | Previous Version | Text Only | Print | Product List | Glossary On
Versions: 1 2 3 4 5 6 7 8 9 10 11 12 13 14 15 16 17 18 19 20 21 22 23 24 25 26 27 28
000
FTUS45 KGJT 251739
TAFVEL
TAF
KVEL 251739Z 2518/2618 00000KT 5SM -RA BR FEW010 BKN050 OVC060
     FM252000 VRB04KT P6SM VCTS FEW030 SCT060 BKN090CB
      TEMPO 2520/2524 VRB15G25KT -TSRA SCT050 BKN070CB
     FM260200 36004KT P6SM VCTS SCT070 BKN090CB
     FM260500 32004KT P6SM BKN100=

USA.gov is the U.S. government's official web portal to all federal, state and local government web resources and services.